Time;durP1;ratioP1;P1;durP2;ratioP2;P2;SDS_P1;SDS_P2;PMS_P1;PMS_P2;Temp;Humidity;BMP_temperature;BMP_pressure;BME280_temperature;BME280_humidity;BME280_pressure;Samples;Min_cycle;Max_cycle;Signal;HPM_P1;HPM_P2
2023/03/10 00:00:17;;;;;;;2.38;0.85;;;;;;;11.39;86.39;98439.03;5002863;28;20044;-72
2023/03/10 00:02:48;;;;;;;2.03;1.10;;;;;;;11.37;86.11;98435.72;4999124;28;20041;-71
2023/03/10 00:05:15;;;;;;;2.20;0.77;;;;;;;11.33;86.93;98441.03;4991861;28;20033;-72
2023/03/10 00:07:40;;;;;;;3.83;1.17;;;;;;;11.30;87.07;98441.19;4996804;28;20054;-71
2023/03/10 00:10:06;;;;;;;1.70;0.73;;;;;;;11.30;86.75;98442.91;5005327;28;20041;-71
2023/03/10 00:12:31;;;;;;;2.90;0.60;;;;;;;11.29;86.94;98436.91;4988016;28;20035;-71
2023/03/10 00:14:57;;;;;;;4.88;0.90;;;;;;;11.29;87.29;98434.31;4995715;28;20125;-72
2023/03/10 00:17:22;;;;;;;1.80;0.57;;;;;;;11.34;86.83;98431.50;5001354;28;20042;-72
2023/03/10 00:19:48;;;;;;;2.75;0.73;;;;;;;11.33;86.76;98425.50;5008387;28;20104;-72
2023/03/10 00:22:13;;;;;;;2.75;1.23;;;;;;;11.27;87.09;98423.22;4993695;28;20083;-71
2023/03/10 00:24:38;;;;;;;3.22;0.60;;;;;;;11.32;86.89;98415.22;4997853;28;20125;-72
2023/03/10 00:27:04;;;;;;;1.38;0.50;;;;;;;11.35;86.30;98418.50;4986765;28;20057;-71
2023/03/10 00:29:29;;;;;;;2.63;0.60;;;;;;;11.38;86.45;98411.50;4992954;28;20037;-72
2023/03/10 00:31:54;;;;;;;1.38;0.75;;;;;;;11.34;86.90;98414.22;4994465;28;20045;-71
2023/03/10 00:34:20;;;;;;;1.30;0.47;;;;;;;11.32;86.46;98412.63;4992118;28;20731;-72
2023/03/10 00:36:45;;;;;;;1.63;0.52;;;;;;;11.30;86.65;98415.31;5002568;28;20558;-71
2023/03/10 00:39:11;;;;;;;1.35;0.50;;;;;;;11.26;87.14;98421.53;4995527;28;20045;-71
2023/03/10 00:41:37;;;;;;;1.67;0.50;;;;;;;11.33;86.26;98422.09;5003086;28;20038;-71
2023/03/10 00:44:05;;;;;;;1.75;0.60;;;;;;;11.32;86.45;98418.66;5003896;28;20482;-72
2023/03/10 00:46:33;;;;;;;0.77;0.40;;;;;;;11.34;86.25;98416.81;4988996;28;20035;-70
2023/03/10 00:48:58;;;;;;;0.77;0.38;;;;;;;11.38;86.40;98424.44;4991165;28;20065;-72
2023/03/10 00:51:23;;;;;;;0.98;0.45;;;;;;;11.38;86.59;98427.00;4988674;28;20120;-72
2023/03/10 00:53:49;;;;;;;0.75;0.47;;;;;;;11.40;85.57;98412.25;4999430;28;20823;-71
2023/03/10 00:56:20;;;;;;;0.90;0.57;;;;;;;11.45;85.74;98416.34;4997809;28;20037;-71
2023/03/10 00:58:48;;;;;;;0.60;0.38;;;;;;;11.42;85.82;98415.63;4996204;28;20053;-72
2023/03/10 01:01:18;;;;;;;0.70;0.32;;;;;;;11.41;86.19;98413.94;5001675;28;20044;-72
2023/03/10 01:03:44;;;;;;;0.75;0.38;;;;;;;11.32;86.87;98410.91;5001407;28;20153;-71
2023/03/10 01:06:10;;;;;;;0.80;0.38;;;;;;;11.33;86.31;98414.31;5000392;28;20550;-72
2023/03/10 01:08:36;;;;;;;0.63;0.40;;;;;;;11.31;86.55;98408.38;4994794;28;20056;-71
2023/03/10 01:11:01;;;;;;;0.45;0.45;;;;;;;11.31;86.52;98422.13;4997515;28;20030;-71
2023/03/10 01:13:27;;;;;;;1.17;0.40;;;;;;;11.30;87.05;98412.72;4989402;28;20043;-72
2023/03/10 01:15:52;;;;;;;0.40;0.30;;;;;;;11.29;86.58;98405.88;4997711;28;20084;-72
2023/03/10 01:18:21;;;;;;;0.52;0.40;;;;;;;11.30;86.12;98404.97;4989163;28;20046;-72
2023/03/10 01:20:46;;;;;;;0.40;0.40;;;;;;;11.29;85.97;98402.44;5001609;28;20041;-71
2023/03/10 01:23:18;;;;;;;1.02;0.30;;;;;;;11.37;85.39;98404.66;4993515;28;20029;-70
2023/03/10 01:25:44;;;;;;;0.35;0.35;;;;;;;11.34;85.65;98398.72;4998555;28;20072;-71
2023/03/10 01:28:10;;;;;;;1.35;0.30;;;;;;;11.37;85.79;98400.31;4995109;28;20116;-70
2023/03/10 01:30:35;;;;;;;1.70;0.22;;;;;;;11.38;85.79;98403.75;4991461;28;20428;-71
2023/03/10 01:33:01;;;;;;;1.15;0.30;;;;;;;11.44;84.79;98391.38;4993443;28;20042;-70
2023/03/10 01:35:28;;;;;;;1.08;0.30;;;;;;;11.42;84.61;98390.59;4996700;28;20451;-70
2023/03/10 01:37:53;;;;;;;1.98;0.32;;;;;;;11.43;84.86;98394.88;4997892;28;20721;-71
2023/03/10 01:40:19;;;;;;;0.22;0.22;;;;;;;11.36;85.52;98390.91;4996729;28;20132;-65
2023/03/10 01:42:45;;;;;;;0.20;0.20;;;;;;;11.41;84.56;98393.25;4993670;28;20687;-65
2023/03/10 01:45:13;;;;;;;3.83;0.30;;;;;;;11.38;85.23;98391.66;4992669;28;20034;-66
2023/03/10 01:47:39;;;;;;;0.55;0.30;;;;;;;11.38;85.12;98381.31;4998500;28;20109;-65
2023/03/10 01:50:12;;;;;;;1.75;0.40;;;;;;;11.48;84.71;98384.31;5003102;28;20041;-65
2023/03/10 01:52:40;;;;;;;0.40;0.30;;;;;;;11.48;84.76;98389.47;4994426;28;20040;-65
2023/03/10 01:55:10;;;;;;;0.20;0.20;;;;;;;11.50;84.53;98391.06;4990909;28;20037;-65
2023/03/10 01:57:43;;;;;;;0.50;0.20;;;;;;;11.51;84.49;98386.75;4996381;28;20213;-65
2023/03/10 02:00:14;;;;;;;0.57;0.30;;;;;;;11.46;84.81;98384.38;4994691;28;20100;-65
2023/03/10 02:02:51;;;;;;;0.75;0.40;;;;;;;11.39;85.39;98395.91;5003286;28;20081;-65
2023/03/10 02:05:17;;;;;;;0.25;0.25;;;;;;;11.37;85.44;98402.91;5000686;28;20018;-65
2023/03/10 02:07:43;;;;;;;1.80;0.30;;;;;;;11.38;85.70;98396.81;4998924;28;20038;-65
2023/03/10 02:10:12;;;;;;;1.00;0.35;;;;;;;11.33;86.16;98391.03;4996660;28;20079;-65
2023/03/10 02:12:39;;;;;;;1.17;0.30;;;;;;;11.30;86.73;98398.94;4989631;28;20493;-65
2023/03/10 02:15:05;;;;;;;0.47;0.30;;;;;;;11.24;86.75;98399.25;4985171;28;20070;-66
2023/03/10 02:17:33;;;;;;;3.40;0.20;;;;;;;11.26;86.86;98398.25;4992520;28;20029;-65
2023/03/10 02:20:08;;;;;;;1.52;0.30;;;;;;;11.26;87.43;98408.59;4989340;28;20134;-65
2023/03/10 02:22:35;;;;;;;0.35;0.35;;;;;;;11.23;90.21;98407.91;5006879;28;20073;-66
2023/03/10 02:25:21;;;;;;;0.77;0.68;;;;;;;11.07;92.66;98410.38;4984762;28;20042;-66
2023/03/10 02:27:47;;;;;;;0.85;0.70;;;;;;;10.95;94.33;98417.91;4994068;28;20057;-66
2023/03/10 02:30:15;;;;;;;1.00;0.63;;;;;;;10.84;95.75;98407.22;4997608;28;20034;-66
2023/03/10 02:32:47;;;;;;;1.83;0.50;;;;;;;10.74;96.75;98407.66;4999530;28;20796;-64
2023/03/10 02:35:13;;;;;;;0.90;0.50;;;;;;;10.67;97.37;98410.59;4995248;28;20045;-64
2023/03/10 02:37:39;;;;;;;0.90;0.45;;;;;;;10.62;97.92;98404.81;4995126;28;20451;-65
2023/03/10 02:40:39;;;;;;;1.27;0.50;;;;;;;10.56;98.84;98405.09;4997477;28;20514;-64
2023/03/10 02:43:25;;;;;;;2.10;0.60;;;;;;;10.50;99.12;98402.78;4987506;28;20048;-64
2023/03/10 02:45:54;;;;;;;0.70;0.40;;;;;;;10.43;99.75;98396.22;4991462;28;20037;-64
2023/03/10 02:48:28;;;;;;;0.63;0.40;;;;;;;10.40;99.69;98397.19;4991477;28;20040;-64
2023/03/10 02:50:54;;;;;;;0.60;0.50;;;;;;;10.37;99.86;98392.16;4993138;28;20034;-64
2023/03/10 02:53:22;;;;;;;2.20;0.50;;;;;;;10.40;99.98;98397.19;5013757;28;20387;-64
2023/03/10 02:55:47;;;;;;;0.43;0.40;;;;;;;10.40;99.69;98401.53;5008484;28;20041;-64
2023/03/10 02:58:13;;;;;;;1.27;0.40;;;;;;;10.39;99.61;98392.09;4995432;28;20034;-64
2023/03/10 03:00:41;;;;;;;0.70;0.50;;;;;;;10.36;99.51;98382.75;4994496;28;20045;-65
2023/03/10 03:03:08;;;;;;;2.55;0.60;;;;;;;10.33;99.52;98377.72;4995577;28;20054;-64
2023/03/10 03:05:33;;;;;;;2.55;0.60;;;;;;;10.30;99.73;98384.78;4997940;28;20026;-64
2023/03/10 03:07:59;;;;;;;1.63;0.35;;;;;;;10.28;99.96;98374.50;5004294;28;20084;-64
2023/03/10 03:10:24;;;;;;;0.73;0.45;;;;;;;10.24;100.00;98383.28;4994142;28;20710;-64
2023/03/10 03:12:50;;;;;;;1.23;0.52;;;;;;;10.22;99.95;98379.94;5000698;28;20075;-64
2023/03/10 03:15:16;;;;;;;1.15;0.50;;;;;;;10.18;100.00;98384.41;4997282;28;20042;-65
2023/03/10 03:17:42;;;;;;;0.45;0.35;;;;;;;10.15;99.77;98381.13;5005874;28;20045;-65
2023/03/10 03:20:13;;;;;;;1.40;0.47;;;;;;;10.09;100.00;98381.38;4995819;28;20037;-64
2023/03/10 03:22:47;;;;;;;1.13;0.47;;;;;;;10.09;99.58;98376.22;4998454;28;20046;-65
2023/03/10 03:25:16;;;;;;;2.47;0.57;;;;;;;10.08;99.81;98380.56;5002090;28;20091;-64
2023/03/10 03:27:45;;;;;;;2.47;0.80;;;;;;;10.07;98.58;98381.47;4996423;28;20132;-64
2023/03/10 03:30:15;;;;;;;2.85;0.90;;;;;;;10.07;98.11;98376.31;4991398;28;20169;-66
2023/03/10 03:32:41;;;;;;;1.63;0.70;;;;;;;10.06;97.11;98379.78;5002885;28;20033;-65
2023/03/10 03:35:23;;;;;;;4.47;0.90;;;;;;;10.14;95.53;98372.56;4997367;28;20365;-65
2023/03/10 03:37:49;;;;;;;2.75;0.88;;;;;;;10.13;94.79;98370.88;4998605;28;20581;-65
2023/03/10 03:40:14;;;;;;;5.72;0.98;;;;;;;10.08;93.95;98366.84;4999754;28;20030;-65
2023/03/10 03:42:42;;;;;;;3.88;1.60;;;;;;;9.99;94.50;98373.25;4990614;28;20385;-64
2023/03/10 03:45:08;;;;;;;7.00;1.17;;;;;;;9.90;94.52;98370.22;4993822;28;20041;-65
2023/03/10 03:47:33;;;;;;;2.67;0.75;;;;;;;9.78;95.21;98374.16;4997712;28;20668;-65
2023/03/10 03:49:59;;;;;;;1.95;0.70;;;;;;;9.64;95.10;98376.50;4989820;28;20089;-65
2023/03/10 03:52:25;;;;;;;4.97;1.20;;;;;;;9.54;94.88;98370.03;4994617;28;20069;-65
2023/03/10 03:54:51;;;;;;;3.67;1.15;;;;;;;9.40;95.30;98374.94;4991960;28;20030;-65
2023/03/10 03:57:17;;;;;;;6.90;1.25;;;;;;;9.34;96.10;98376.03;5000472;28;20034;-65
2023/03/10 03:59:43;;;;;;;4.97;1.02;;;;;;;9.34;95.57;98373.44;4995983;28;20083;-65
2023/03/10 04:02:08;;;;;;;8.40;1.30;;;;;;;9.31;95.44;98368.41;4997647;28;20831;-65
2023/03/10 04:04:34;;;;;;;12.18;1.73;;;;;;;9.25;95.82;98367.84;4991873;28;20479;-65
2023/03/10 04:07:00;;;;;;;4.45;1.30;;;;;;;9.18;95.73;98372.38;4989111;28;21027;-65
2023/03/10 04:09:25;;;;;;;4.18;0.95;;;;;;;9.12;96.36;98368.34;4989616;28;20034;-64
2023/03/10 04:11:51;;;;;;;9.70;1.70;;;;;;;9.06;96.21;98366.00;4990793;28;20879;-65
2023/03/10 04:14:16;;;;;;;5.65;1.63;;;;;;;8.97;96.34;98368.94;4995200;28;20018;-64
2023/03/10 04:16:41;;;;;;;8.40;1.48;;;;;;;8.91;97.33;98366.63;4990766;28;20049;-65
2023/03/10 04:19:07;;;;;;;6.47;1.48;;;;;;;8.86;97.46;98371.13;4986588;28;20038;-64
2023/03/10 04:21:33;;;;;;;7.00;3.15;;;;;;;8.82;97.09;98364.41;4990719;28;20049;-65
2023/03/10 04:23:59;;;;;;;5.38;1.58;;;;;;;8.79;97.07;98359.38;4995474;28;20137;-65
2023/03/10 04:26:24;;;;;;;9.20;1.73;;;;;;;8.73;97.98;98351.03;4992153;28;20390;-66
2023/03/10 04:28:50;;;;;;;6.95;1.70;;;;;;;8.70;97.57;98351.16;4992171;28;21863;-64
2023/03/10 04:31:17;;;;;;;7.18;1.40;;;;;;;8.72;97.60;98347.66;4993376;28;20115;-65
2023/03/10 04:33:42;;;;;;;7.53;1.52;;;;;;;8.74;98.17;98342.44;4996484;28;20056;-65
2023/03/10 04:36:08;;;;;;;6.05;1.50;;;;;;;8.74;98.09;98338.13;4992133;28;20053;-65
2023/03/10 04:38:34;;;;;;;3.38;1.38;;;;;;;8.74;98.73;98338.13;4995873;28;20129;-65
2023/03/10 04:41:00;;;;;;;5.80;1.80;;;;;;;8.76;97.71;98332.88;5002585;28;20026;-65
2023/03/10 04:43:25;;;;;;;8.27;1.92;;;;;;;8.76;97.93;98333.72;4993730;28;20903;-65
2023/03/10 04:45:51;;;;;;;4.57;1.20;;;;;;;8.75;97.88;98333.81;4993369;28;20041;-65
2023/03/10 04:48:16;;;;;;;6.70;1.92;;;;;;;8.73;97.67;98333.84;4994264;28;20137;-66
2023/03/10 04:50:42;;;;;;;9.25;1.75;;;;;;;8.74;98.29;98332.13;5009871;28;20144;-65
2023/03/10 04:53:07;;;;;;;4.30;1.60;;;;;;;8.77;98.17;98324.28;4988243;28;20487;-65
2023/03/10 04:55:33;;;;;;;5.20;1.40;;;;;;;8.81;98.72;98326.66;4994166;28;20058;-65
2023/03/10 04:57:58;;;;;;;7.95;2.58;;;;;;;8.86;98.40;98313.59;5003357;28;20087;-65
2023/03/10 05:00:23;;;;;;;10.35;2.55;;;;;;;8.92;98.00;98313.34;4994145;28;20049;-67
2023/03/10 05:02:49;;;;;;;8.98;1.60;;;;;;;8.98;97.61;98308.81;4996168;28;20033;-65
2023/03/10 05:05:14;;;;;;;6.88;1.95;;;;;;;9.05;97.48;98312.78;4991545;28;20259;-65
2023/03/10 05:07:40;;;;;;;8.32;2.35;;;;;;;9.12;97.32;98311.63;4998378;28;20658;-65
2023/03/10 05:10:07;;;;;;;7.95;1.88;;;;;;;9.21;96.40;98309.56;4994518;28;20038;-65
2023/03/10 05:12:32;;;;;;;6.18;1.38;;;;;;;9.25;95.91;98303.41;4997371;28;20037;-65
2023/03/10 05:14:58;;;;;;;4.80;1.80;;;;;;;9.27;96.27;98299.84;4994746;28;20688;-65
2023/03/10 05:17:25;;;;;;;9.13;2.15;;;;;;;9.30;95.77;98297.13;4989310;28;20732;-65
2023/03/10 05:19:50;;;;;;;5.93;1.38;;;;;;;9.32;95.72;98294.47;4992461;28;20111;-64
2023/03/10 05:22:16;;;;;;;4.13;1.27;;;;;;;9.32;96.04;98292.75;4993703;28;20496;-65
2023/03/10 05:24:42;;;;;;;4.80;1.40;;;;;;;9.33;95.71;98298.75;4999079;28;20076;-65
2023/03/10 05:27:09;;;;;;;3.85;1.35;;;;;;;9.33;95.80;98299.59;4991374;28;20034;-65
2023/03/10 05:29:37;;;;;;;7.32;1.58;;;;;;;9.33;96.38;98296.16;4986838;28;20029;-65
2023/03/10 05:32:03;;;;;;;4.18;1.30;;;;;;;9.36;95.41;98296.03;4998086;28;20068;-65
2023/03/10 05:34:29;;;;;;;8.05;1.52;;;;;;;9.37;95.78;98293.41;4996562;28;20034;-65
2023/03/10 05:36:55;;;;;;;3.20;1.10;;;;;;;9.37;95.86;98292.56;4995423;28;20038;-65
2023/03/10 05:39:21;;;;;;;4.38;1.45;;;;;;;9.39;94.75;98296.75;4992577;28;20636;-66
2023/03/10 05:41:47;;;;;;;4.18;1.08;;;;;;;9.41;95.15;98304.41;5003637;28;20046;-65
2023/03/10 05:44:12;;;;;;;6.60;1.67;;;;;;;9.43;94.45;98306.03;4998012;28;20108;-65
2023/03/10 05:46:37;;;;;;;5.78;1.50;;;;;;;9.43;94.50;98300.88;4996133;28;20843;-65
2023/03/10 05:49:03;;;;;;;6.53;1.48;;;;;;;9.50;94.46;98301.44;4996209;28;20045;-66
2023/03/10 05:51:28;;;;;;;4.47;1.25;;;;;;;9.56;94.69;98304.59;4993530;28;20041;-65
2023/03/10 05:53:54;;;;;;;5.53;1.63;;;;;;;9.60;94.15;98306.16;4999135;28;20442;-66
2023/03/10 05:56:20;;;;;;;4.68;1.10;;;;;;;9.64;93.88;98310.28;4998930;28;20035;-66
2023/03/10 05:58:46;;;;;;;3.25;0.88;;;;;;;9.67;94.59;98309.31;5000659;28;20124;-66
2023/03/10 06:01:12;;;;;;;5.20;0.95;;;;;;;9.65;94.48;98318.84;4984755;28;20062;-66
2023/03/10 06:03:38;;;;;;;5.63;1.00;;;;;;;9.62;95.60;98313.81;4977465;28;20066;-66
2023/03/10 06:06:05;;;;;;;3.53;0.95;;;;;;;9.58;96.50;98314.88;4998868;28;20037;-66
2023/03/10 06:08:31;;;;;;;3.15;1.20;;;;;;;9.53;96.97;98316.75;4994359;28;20033;-66
2023/03/10 06:10:57;;;;;;;3.92;0.90;;;;;;;9.52;97.52;98320.28;4992201;28;20038;-66
2023/03/10 06:13:23;;;;;;;4.43;0.93;;;;;;;9.50;97.61;98319.47;4999315;28;20041;-65
2023/03/10 06:15:50;;;;;;;3.20;0.90;;;;;;;9.44;97.64;98307.69;4993943;28;20034;-66
2023/03/10 06:18:17;;;;;;;2.15;0.98;;;;;;;9.42;98.20;98303.50;4990384;28;20047;-65
2023/03/10 06:20:42;;;;;;;3.60;0.85;;;;;;;9.40;98.33;98310.47;4988712;28;20045;-65
2023/03/10 06:23:08;;;;;;;5.68;1.00;;;;;;;9.39;98.50;98311.38;4985863;28;20032;-66
2023/03/10 06:25:34;;;;;;;4.65;1.17;;;;;;;9.38;98.41;98307.94;4985863;28;20112;-65
2023/03/10 06:27:59;;;;;;;4.63;1.30;;;;;;;9.41;98.86;98301.81;4988495;28;20570;-65
2023/03/10 06:30:25;;;;;;;4.40;1.75;;;;;;;9.44;98.90;98305.09;4992345;28;20033;-65
2023/03/10 06:32:50;;;;;;;10.63;1.60;;;;;;;9.47;98.27;98309.28;5000145;28;20032;-65
2023/03/10 06:35:16;;;;;;;6.28;1.38;;;;;;;9.49;98.55;98303.19;5004516;28;20534;-65
2023/03/10 06:37:41;;;;;;;2.15;1.10;;;;;;;9.49;98.90;98308.34;5000614;28;20041;-66
2023/03/10 06:40:11;;;;;;;7.85;1.58;;;;;;;9.51;98.47;98301.38;4995962;28;20302;-65
2023/03/10 06:42:41;;;;;;;5.80;1.55;;;;;;;9.50;98.53;98304.84;4999874;28;20038;-65
2023/03/10 06:45:08;;;;;;;4.88;1.52;;;;;;;9.51;98.94;98308.28;4994556;28;20034;-65
2023/03/10 06:47:34;;;;;;;6.85;1.80;;;;;;;9.50;99.08;98302.28;5001492;28;20035;-66
2023/03/10 06:50:01;;;;;;;2.95;1.65;;;;;;;9.53;99.16;98298.72;5002702;28;20046;-65
2023/03/10 06:52:26;;;;;;;5.10;1.65;;;;;;;9.56;98.92;98301.16;4992272;28;20085;-66
2023/03/10 06:54:51;;;;;;;6.60;1.88;;;;;;;9.59;99.21;98308.78;4990366;28;20480;-65
2023/03/10 06:57:17;;;;;;;5.78;1.35;;;;;;;9.60;99.00;98301.00;5002528;28;20054;-66
2023/03/10 06:59:43;;;;;;;4.57;1.33;;;;;;;9.63;98.74;98303.47;4995145;28;20510;-66
2023/03/10 07:02:11;;;;;;;3.85;1.30;;;;;;;9.68;98.99;98300.66;4997643;28;20048;-65
2023/03/10 07:04:36;;;;;;;2.88;1.50;;;;;;;9.73;98.83;98305.63;4988231;28;20100;-66
2023/03/10 07:07:02;;;;;;;3.08;1.60;;;;;;;9.80;97.49;98301.84;4992257;28;20046;-65
2023/03/10 07:09:27;;;;;;;7.20;1.70;;;;;;;9.86;97.39;98304.16;4992591;28;20457;-66
2023/03/10 07:11:53;;;;;;;7.07;2.05;;;;;;;9.90;98.14;98297.97;4990520;28;20138;-66
2023/03/10 07:14:18;;;;;;;6.32;2.55;;;;;;;9.95;97.60;98299.44;4985938;28;20045;-66
2023/03/10 07:16:45;;;;;;;8.40;2.05;;;;;;;10.02;96.88;98307.75;4994898;28;20095;-67
2023/03/10 07:19:11;;;;;;;5.47;1.90;;;;;;;10.12;95.91;98296.91;4988270;28;20038;-66
2023/03/10 07:21:36;;;;;;;8.90;1.83;;;;;;;10.24;94.63;98296.34;5000071;28;20065;-65
2023/03/10 07:24:02;;;;;;;7.53;1.75;;;;;;;10.30;94.38;98302.16;4986940;28;20041;-65
2023/03/10 07:26:27;;;;;;;4.03;1.88;;;;;;;10.34;93.80;98309.69;4996151;28;20044;-65
2023/03/10 07:28:53;;;;;;;6.65;1.70;;;;;;;10.41;92.69;98308.50;4988540;28;20527;-65
2023/03/10 07:31:18;;;;;;;7.30;1.80;;;;;;;10.51;92.21;98314.88;4991189;28;20034;-64
2023/03/10 07:33:44;;;;;;;4.32;1.48;;;;;;;10.58;91.83;98310.28;4982824;28;20033;-64
2023/03/10 07:36:12;;;;;;;5.95;1.70;;;;;;;10.63;90.77;98301.41;4994563;28;20104;-64
2023/03/10 07:38:38;;;;;;;6.68;1.52;;;;;;;10.68;91.00;98306.34;4987341;28;20037;-64
2023/03/10 07:41:25;;;;;;;5.65;1.83;;;;;;;10.78;88.73;98297.25;4990228;28;20018;-64
2023/03/10 07:43:53;;;;;;;6.05;1.63;;;;;;;10.79;89.05;98306.69;4996159;28;20669;-65
2023/03/10 07:46:19;;;;;;;7.03;1.38;;;;;;;10.82;89.01;98313.44;4994712;28;20538;-64
2023/03/10 07:48:45;;;;;;;5.60;1.70;;;;;;;10.86;87.76;98313.19;4996744;28;20088;-64
2023/03/10 07:51:11;;;;;;;7.63;1.42;;;;;;;10.93;87.72;98313.75;4987475;28;20065;-64
2023/03/10 07:53:37;;;;;;;7.13;1.40;;;;;;;10.93;87.06;98318.91;4993496;28;20041;-64
2023/03/10 07:56:04;;;;;;;4.78;1.42;;;;;;;10.97;86.67;98318.72;4994343;28;20034;-64
2023/03/10 07:58:29;;;;;;;4.20;1.63;;;;;;;10.97;86.91;98320.44;4990223;28;20134;-64
2023/03/10 08:00:56;;;;;;;4.53;1.58;;;;;;;11.01;86.11;98309.88;4997415;28;20692;-64
2023/03/10 08:03:24;;;;;;;7.13;2.08;;;;;;;11.02;85.63;98311.56;4988235;28;20054;-64
2023/03/10 08:05:49;;;;;;;8.77;3.15;;;;;;;11.01;86.12;98312.44;4988863;28;20042;-64
2023/03/10 08:08:14;;;;;;;9.35;2.60;;;;;;;10.99;86.68;98319.47;4988866;28;20037;-64
2023/03/10 08:10:40;;;;;;;7.13;1.33;;;;;;;10.97;85.34;98318.72;4994213;28;20080;-64
2023/03/10 08:13:05;;;;;;;5.97;1.50;;;;;;;10.97;85.57;98328.19;4988539;28;20034;-63
2023/03/10 08:15:31;;;;;;;8.60;1.95;;;;;;;10.97;85.65;98323.03;4989200;28;20045;-64
2023/03/10 08:17:57;;;;;;;8.63;1.35;;;;;;;11.01;85.34;98320.22;5002086;28;20054;-65
2023/03/10 08:20:22;;;;;;;6.80;1.48;;;;;;;11.05;85.33;98323.50;4995468;28;20027;-64
2023/03/10 08:22:48;;;;;;;7.22;1.30;;;;;;;11.11;84.32;98321.44;4987307;28;20042;-64
2023/03/10 08:25:13;;;;;;;6.25;1.52;;;;;;;11.10;83.93;98321.53;4989916;28;20052;-63
2023/03/10 08:27:40;;;;;;;3.03;1.25;;;;;;;11.05;84.60;98333.81;4992288;28;20046;-64
2023/03/10 08:30:06;;;;;;;5.65;1.63;;;;;;;10.96;85.08;98332.53;4992135;28;20797;-64
2023/03/10 08:32:31;;;;;;;7.97;1.60;;;;;;;10.89;85.08;98328.56;4993935;28;20042;-64
2023/03/10 08:34:57;;;;;;;6.32;1.25;;;;;;;10.87;84.63;98326.97;4991581;28;20022;-64
2023/03/10 08:37:22;;;;;;;4.13;1.02;;;;;;;10.87;84.23;98320.06;4998679;28;20041;-64
2023/03/10 08:39:50;;;;;;;7.43;1.13;;;;;;;10.94;83.67;98325.75;4990294;28;20048;-64
2023/03/10 08:42:16;;;;;;;10.18;1.42;;;;;;;11.11;83.34;98326.63;4994961;28;20046;-64
2023/03/10 08:44:41;;;;;;;3.83;0.90;;;;;;;11.27;82.07;98331.88;4986807;28;20044;-64
2023/03/10 08:47:07;;;;;;;4.97;1.08;;;;;;;11.42;81.46;98330.25;4990549;28;20041;-64
2023/03/10 08:49:32;;;;;;;6.97;1.27;;;;;;;11.61;80.89;98326.69;4992011;28;20045;-64
2023/03/10 08:51:58;;;;;;;3.45;0.98;;;;;;;11.92;79.85;98318.16;4991501;28;20504;-64
2023/03/10 08:54:24;;;;;;;3.33;0.95;;;;;;;12.21;78.12;98312.28;4989746;28;20719;-64
2023/03/10 08:56:49;;;;;;;2.67;0.80;;;;;;;12.44;75.90;98303.25;4990321;28;20029;-64
2023/03/10 08:59:15;;;;;;;3.75;1.52;;;;;;;12.61;74.36;98304.91;4994692;28;20141;-64
2023/03/10 09:01:40;;;;;;;3.72;0.63;;;;;;;12.67;74.28;98310.56;4985801;28;20464;-64
2023/03/10 09:04:07;;;;;;;7.22;0.80;;;;;;;12.65;74.54;98315.00;4983397;28;20409;-64
2023/03/10 09:06:34;;;;;;;7.20;1.20;;;;;;;12.60;73.49;98309.25;4991956;28;20454;-64
2023/03/10 09:09:01;;;;;;;6.20;1.02;;;;;;;12.51;73.60;98308.94;4994275;28;21744;-64
2023/03/10 09:11:30;;;;;;;4.68;1.48;;;;;;;12.34;74.39;98328.84;4994987;28;20252;-66
2023/03/10 09:13:56;;;;;;;3.53;1.05;;;;;;;12.27;73.53;98309.34;4992030;28;20125;-64
2023/03/10 09:16:21;;;;;;;3.33;0.80;;;;;;;12.23;74.26;98320.78;5000331;28;20038;-64
2023/03/10 09:18:47;;;;;;;2.92;0.80;;;;;;;12.26;73.64;98315.44;4991292;28;20048;-66
2023/03/10 09:21:16;;;;;;;2.60;0.75;;;;;;;12.29;72.71;98310.09;4990405;28;20042;-64
2023/03/10 09:23:43;;;;;;;2.47;0.63;;;;;;;12.33;71.45;98303.00;5001625;28;20125;-64
2023/03/10 09:26:09;;;;;;;3.55;0.77;;;;;;;12.32;71.72;98307.34;4992921;28;20105;-63
2023/03/10 09:28:35;;;;;;;4.88;0.80;;;;;;;12.41;70.65;98300.81;5004197;28;20776;-64
2023/03/10 09:31:02;;;;;;;5.40;0.90;;;;;;;12.54;69.58;98301.00;5004166;28;20038;-63
2023/03/10 09:33:28;;;;;;;3.58;0.77;;;;;;;12.65;69.65;98301.22;4997965;28;20108;-64
2023/03/10 09:35:56;;;;;;;1.67;0.50;;;;;;;12.71;69.13;98293.09;5002693;28;20046;-65
2023/03/10 09:38:21;;;;;;;3.20;0.82;;;;;;;12.73;68.35;98275.72;4995101;28;20042;-64
2023/03/10 09:41:13;;;;;;;3.40;0.80;;;;;;;12.79;68.19;98276.19;4991774;28;20038;-64
2023/03/10 09:43:44;;;;;;;2.38;0.65;;;;;;;12.95;68.18;98289.97;4997871;28;20041;-64
2023/03/10 09:46:18;;;;;;;4.03;0.80;;;;;;;13.13;67.90;98288.09;4998652;28;20805;-64
2023/03/10 09:48:50;;;;;;;;;;;;;;;13.28;66.94;98284.59;4999738;28;20073;-64
2023/03/10 09:51:25;;;;;;;4.30;1.25;;;;;;;13.40;65.14;98250.16;4991741;28;20422;-63
2023/03/10 09:54:32;;;;;;;6.70;0.93;;;;;;;13.49;65.13;98252.22;4987842;28;20521;-65
2023/03/10 09:56:59;;;;;;;5.05;1.10;;;;;;;13.61;65.54;98262.75;4997817;28;20747;-64
2023/03/10 09:59:34;;;;;;;5.07;1.15;;;;;;;13.75;64.40;98239.41;4993144;28;20037;-65
2023/03/10 10:02:12;;;;;;;3.33;1.40;;;;;;;13.88;64.66;98235.97;4999544;28;20550;-65
2023/03/10 10:04:40;;;;;;;4.88;1.38;;;;;;;13.99;64.90;98245.69;4999241;28;20046;-65
2023/03/10 10:07:18;;;;;;;4.40;1.15;;;;;;;13.97;65.09;98258.78;4997288;28;20038;-64
2023/03/10 10:09:55;;;;;;;4.05;1.63;;;;;;;13.88;65.44;98261.09;4992388;28;20049;-65
2023/03/10 10:12:24;;;;;;;4.90;1.05;;;;;;;13.80;65.51;98258.94;4991979;28;20129;-65
2023/03/10 10:14:56;;;;;;;2.83;0.98;;;;;;;13.80;64.14;98232.97;5000220;28;20036;-66
2023/03/10 10:17:46;;;;;;;3.30;1.02;;;;;;;13.96;63.24;98225.09;4995700;28;20054;-65
2023/03/10 10:20:21;;;;;;;6.07;1.67;;;;;;;14.09;63.76;98223.41;4996125;28;20054;-65
2023/03/10 10:22:46;;;;;;;6.28;1.70;;;;;;;14.17;62.58;98215.13;4999023;28;20060;-65
2023/03/10 10:25:23;;;;;;;6.55;1.38;;;;;;;14.23;62.81;98201.75;4997467;28;20046;-66
2023/03/10 10:27:54;;;;;;;5.90;1.20;;;;;;;14.21;61.79;98182.81;4987418;28;20030;-65
2023/03/10 10:30:39;;;;;;;5.22;1.20;;;;;;;14.25;62.15;98194.66;4998670;28;20037;-65
2023/03/10 10:33:13;;;;;;;5.22;1.05;;;;;;;14.25;61.11;98171.28;4989991;28;20523;-66
2023/03/10 10:36:04;;;;;;;5.05;1.00;;;;;;;14.39;61.07;98173.88;4992736;28;20097;-66
2023/03/10 10:38:31;;;;;;;5.57;1.30;;;;;;;14.45;59.42;98137.09;4987342;28;20034;-66
2023/03/10 10:41:03;;;;;;;3.85;1.08;;;;;;;14.56;60.08;98142.41;4998892;28;20125;-66
2023/03/10 10:43:29;;;;;;;7.05;1.17;;;;;;;14.68;59.82;98159.81;4997055;28;20046;-66
2023/03/10 10:46:03;;;;;;;5.57;1.00;;;;;;;14.57;60.08;98168.28;4999405;28;20080;-66
2023/03/10 10:48:35;;;;;;;1.90;0.70;;;;;;;14.46;59.52;98165.56;4995942;28;20096;-66
2023/03/10 10:51:01;;;;;;;2.53;0.85;;;;;;;14.39;60.42;98179.91;4987640;28;20042;-63
2023/03/10 10:53:33;;;;;;;3.00;0.70;;;;;;;14.11;60.33;98179.97;4991636;28;20748;-66
2023/03/10 10:56:16;;;;;;;2.10;0.65;;;;;;;13.95;60.72;98184.50;4989713;28;20045;-66
2023/03/10 10:59:00;;;;;;;4.95;0.63;;;;;;;13.86;61.63;98198.84;5008355;28;20129;-66
2023/03/10 11:01:25;;;;;;;2.20;0.68;;;;;;;13.71;61.79;98212.78;4996429;28;20042;-66
2023/03/10 11:04:05;;;;;;;4.82;0.75;;;;;;;13.61;62.62;98229.88;5003174;28;20092;-66
2023/03/10 11:06:33;;;;;;;2.53;0.45;;;;;;;13.47;62.49;98228.09;5001859;28;20989;-66
2023/03/10 11:09:22;;;;;;;1.52;0.52;;;;;;;13.34;62.71;98229.78;4996270;28;20049;-67
2023/03/10 11:12:18;;;;;;;2.28;0.80;;;;;;;13.28;63.39;98237.91;4992440;28;20029;-67
2023/03/10 11:15:01;;;;;;;3.95;0.60;;;;;;;13.25;63.34;98243.28;4993423;28;20035;-66
2023/03/10 11:17:34;;;;;;;2.17;0.68;;;;;;;13.23;64.30;98254.69;4991366;28;20018;-66
2023/03/10 11:20:23;;;;;;;1.75;0.50;;;;;;;13.31;65.70;98268.88;4993242;28;20044;-66
2023/03/10 11:23:00;;;;;;;2.10;0.65;;;;;;;13.43;65.59;98281.13;4988828;28;20132;-67
2023/03/10 11:25:37;;;;;;;3.55;1.00;;;;;;;13.43;65.08;98267.31;5005524;28;20113;-66
2023/03/10 11:28:14;;;;;;;5.07;0.63;;;;;;;13.22;66.79;98295.34;4996049;28;20037;-66
2023/03/10 11:31:12;;;;;;;2.03;0.45;;;;;;;12.94;68.82;98329.75;5000629;28;20719;-66
2023/03/10 11:33:43;;;;;;;2.70;0.63;;;;;;;12.64;72.31;98382.50;4997862;28;20049;-66
2023/03/10 11:36:27;;;;;;;11.05;0.90;;;;;;;12.46;73.45;98368.78;4997493;28;20118;-67
2023/03/10 11:39:24;;;;;;;0.63;0.40;;;;;;;12.21;76.18;98355.47;4991029;28;20042;-66
2023/03/10 11:42:01;;;;;;;1.73;0.50;;;;;;;11.99;77.92;98350.56;4996395;28;20037;-66